KLOR/LOR METAR and TAF weather

Enter ICAO airport designator
Station Type Date Time Source
KLOR METAR 2020/08/11 07:58 UTC NOAA

KLOR 110758Z AUTO 00000KT 10SM CLR 22/21 A3001 RMK AO2 SLP143 T02150206 $


Station Type Date Time Source
KLOR Decoded METAR 2020/08/11 07:58 UTC NOAA

Fort Rucker, Lowe Army Heliport, AL, United States (KLOR) 31-21-32N 085-44-54W 93M
Aug 11, 2020 - 03:58 AM EDT / 2020.08.11 0758 UTC
Wind: Calm:0
Visibility: 10 mile(s):0
Sky conditions: clear
Temperature: 70.7 F (21.5 C)
Dew Point: 69.1 F (20.6 C)
Relative Humidity: 94%
Pressure (altimeter): 30.01 in. Hg (1016 hPa)
ob: KLOR 110758Z AUTO 00000KT 10SM CLR 22/21 A3001 RMK AO2 SLP143 T02150206
cycle: 8

Station Type Date Time Source
KLOR TAF UTC NOAA

Error!

Example: see airport list